sensor_id;sensor_type;location;lat;lon;timestamp;temperature;humidity
1083;DHT22;530;51.448;7.238;2023-11-22T00:00:28;6.80;99.90
1083;DHT22;530;51.448;7.238;2023-11-22T00:02:54;6.90;99.90
1083;DHT22;530;51.448;7.238;2023-11-22T00:05:19;6.90;99.90
1083;DHT22;530;51.448;7.238;2023-11-22T00:07:45;6.90;99.90
1083;DHT22;530;51.448;7.238;2023-11-22T00:10:11;6.90;99.90
1083;DHT22;530;51.448;7.238;2023-11-22T00:12:37;6.80;99.90
1083;DHT22;530;51.448;7.238;2023-11-22T00:15:07;6.80;99.90
1083;DHT22;530;51.448;7.238;2023-11-22T00:17:36;6.80;99.90
1083;DHT22;530;51.448;7.238;2023-11-22T00:20:02;6.80;99.90
1083;DHT22;530;51.448;7.238;2023-11-22T00:22:32;6.80;99.90
1083;DHT22;530;51.448;7.238;2023-11-22T00:24:58;7.00;99.90
1083;DHT22;530;51.448;7.238;2023-11-22T00:27:24;6.90;99.90
1083;DHT22;530;51.448;7.238;2023-11-22T00:29:50;6.90;99.90
1083;DHT22;530;51.448;7.238;2023-11-22T00:32:16;6.90;99.90
1083;DHT22;530;51.448;7.238;2023-11-22T00:34:41;6.80;99.90
1083;DHT22;530;51.448;7.238;2023-11-22T00:37:07;6.80;99.90
1083;DHT22;530;51.448;7.238;2023-11-22T00:39:33;6.90;99.90
1083;DHT22;530;51.448;7.238;2023-11-22T00:41:58;6.80;99.90
1083;DHT22;530;51.448;7.238;2023-11-22T00:44:24;7.00;99.90
1083;DHT22;530;51.448;7.238;2023-11-22T00:46:50;6.90;99.90
1083;DHT22;530;51.448;7.238;2023-11-22T00:49:15;6.90;99.90
1083;DHT22;530;51.448;7.238;2023-11-22T00:51:41;6.90;99.90
1083;DHT22;530;51.448;7.238;2023-11-22T00:54:07;6.80;99.90
1083;DHT22;530;51.448;7.238;2023-11-22T00:56:33;6.80;99.90
1083;DHT22;530;51.448;7.238;2023-11-22T00:58:59;6.80;99.90
1083;DHT22;530;51.448;7.238;2023-11-22T01:01:26;6.70;99.90
1083;DHT22;530;51.448;7.238;2023-11-22T01:03:52;6.70;99.90
1083;DHT22;530;51.448;7.238;2023-11-22T01:06:17;6.60;99.90
1083;DHT22;530;51.448;7.238;2023-11-22T01:08:43;6.60;99.90
1083;DHT22;530;51.448;7.238;2023-11-22T01:11:09;6.60;99.90
1083;DHT22;530;51.448;7.238;2023-11-22T01:13:35;6.60;99.90
1083;DHT22;530;51.448;7.238;2023-11-22T01:16:07;6.60;99.90
1083;DHT22;530;51.448;7.238;2023-11-22T01:18:32;6.60;99.90
1083;DHT22;530;51.448;7.238;2023-11-22T01:20:58;6.60;99.90
1083;DHT22;530;51.448;7.238;2023-11-22T01:23:24;6.50;99.90
1083;DHT22;530;51.448;7.238;2023-11-22T01:25:49;6.50;99.90
1083;DHT22;530;51.448;7.238;2023-11-22T01:28:16;6.60;99.90
1083;DHT22;530;51.448;7.238;2023-11-22T01:30:43;6.50;99.90
1083;DHT22;530;51.448;7.238;2023-11-22T01:33:11;6.60;99.90
1083;DHT22;530;51.448;7.238;2023-11-22T01:35:37;6.60;99.90
1083;DHT22;530;51.448;7.238;2023-11-22T01:38:04;6.60;99.90
1083;DHT22;530;51.448;7.238;2023-11-22T01:40:31;6.60;99.90
1083;DHT22;530;51.448;7.238;2023-11-22T01:42:57;6.60;99.90
1083;DHT22;530;51.448;7.238;2023-11-22T01:45:23;6.60;99.90
1083;DHT22;530;51.448;7.238;2023-11-22T01:47:50;6.60;99.90
1083;DHT22;530;51.448;7.238;2023-11-22T01:50:16;6.60;99.90
1083;DHT22;530;51.448;7.238;2023-11-22T01:52:42;6.60;99.90
1083;DHT22;530;51.448;7.238;2023-11-22T01:55:09;6.70;99.90
1083;DHT22;530;51.448;7.238;2023-11-22T01:57:35;6.70;99.90
1083;DHT22;530;51.448;7.238;2023-11-22T02:00:02;6.50;99.90
1083;DHT22;530;51.448;7.238;2023-11-22T02:02:30;6.50;99.90
1083;DHT22;530;51.448;7.238;2023-11-22T02:04:56;6.60;99.90
1083;DHT22;530;51.448;7.238;2023-11-22T02:07:22;6.50;99.90
1083;DHT22;530;51.448;7.238;2023-11-22T02:09:48;6.50;99.90
1083;DHT22;530;51.448;7.238;2023-11-22T02:12:14;6.50;99.90
1083;DHT22;530;51.448;7.238;2023-11-22T02:14:40;6.50;99.90
1083;DHT22;530;51.448;7.238;2023-11-22T02:17:06;6.50;99.90
1083;DHT22;530;51.448;7.238;2023-11-22T02:19:32;6.50;99.90
1083;DHT22;530;51.448;7.238;2023-11-22T02:21:58;6.50;99.90
1083;DHT22;530;51.448;7.238;2023-11-22T02:24:24;6.40;99.90
1083;DHT22;530;51.448;7.238;2023-11-22T02:26:52;6.50;99.90
1083;DHT22;530;51.448;7.238;2023-11-22T02:29:17;6.50;99.90
1083;DHT22;530;51.448;7.238;2023-11-22T02:31:43;6.60;99.90
1083;DHT22;530;51.448;7.238;2023-11-22T02:34:09;6.70;99.90
1083;DHT22;530;51.448;7.238;2023-11-22T02:36:35;6.60;99.90
1083;DHT22;530;51.448;7.238;2023-11-22T02:39:01;6.60;99.90
1083;DHT22;530;51.448;7.238;2023-11-22T02:41:27;6.60;99.90
1083;DHT22;530;51.448;7.238;2023-11-22T02:43:55;6.60;99.90
1083;DHT22;530;51.448;7.238;2023-11-22T02:46:21;6.50;99.90
1083;DHT22;530;51.448;7.238;2023-11-22T02:48:47;6.40;99.90
1083;DHT22;530;51.448;7.238;2023-11-22T02:51:13;6.40;99.90
1083;DHT22;530;51.448;7.238;2023-11-22T02:53:39;6.50;99.90
1083;DHT22;530;51.448;7.238;2023-11-22T02:56:09;6.50;99.90
1083;DHT22;530;51.448;7.238;2023-11-22T02:58:36;6.60;99.90
1083;DHT22;530;51.448;7.238;2023-11-22T03:01:01;6.60;99.90
1083;DHT22;530;51.448;7.238;2023-11-22T03:03:27;6.50;99.90
1083;DHT22;530;51.448;7.238;2023-11-22T03:05:53;6.40;99.90
1083;DHT22;530;51.448;7.238;2023-11-22T03:08:20;6.40;99.90
1083;DHT22;530;51.448;7.238;2023-11-22T03:10:45;6.30;99.90
1083;DHT22;530;51.448;7.238;2023-11-22T03:13:11;6.40;99.90
1083;DHT22;530;51.448;7.238;2023-11-22T03:15:38;6.40;99.90
1083;DHT22;530;51.448;7.238;2023-11-22T03:18:04;6.30;99.90
1083;DHT22;530;51.448;7.238;2023-11-22T03:20:32;6.30;99.90
1083;DHT22;530;51.448;7.238;2023-11-22T03:22:58;6.30;99.90
1083;DHT22;530;51.448;7.238;2023-11-22T03:25:24;6.20;99.90
1083;DHT22;530;51.448;7.238;2023-11-22T03:27:50;6.20;99.90
1083;DHT22;530;51.448;7.238;2023-11-22T03:30:15;6.20;99.90
1083;DHT22;530;51.448;7.238;2023-11-22T03:32:41;6.20;99.90
1083;DHT22;530;51.448;7.238;2023-11-22T03:35:08;6.20;99.90
1083;DHT22;530;51.448;7.238;2023-11-22T03:37:34;6.30;99.90
1083;DHT22;530;51.448;7.238;2023-11-22T03:40:00;6.30;99.90
1083;DHT22;530;51.448;7.238;2023-11-22T03:42:26;6.30;99.90
1083;DHT22;530;51.448;7.238;2023-11-22T03:44:53;6.20;99.90
1083;DHT22;530;51.448;7.238;2023-11-22T03:47:22;6.10;99.90
1083;DHT22;530;51.448;7.238;2023-11-22T03:49:47;6.10;99.90
1083;DHT22;530;51.448;7.238;2023-11-22T03:52:14;5.90;99.90
1083;DHT22;530;51.448;7.238;2023-11-22T03:54:40;5.90;99.90
1083;DHT22;530;51.448;7.238;2023-11-22T03:57:05;5.80;99.90
1083;DHT22;530;51.448;7.238;2023-11-22T03:59:31;5.70;99.90
1083;DHT22;530;51.448;7.238;2023-11-22T04:01:57;5.70;99.90
1083;DHT22;530;51.448;7.238;2023-11-22T04:04:23;5.70;99.90
1083;DHT22;530;51.448;7.238;2023-11-22T04:06:49;5.60;99.90
1083;DHT22;530;51.448;7.238;2023-11-22T04:09:15;5.60;99.90
1083;DHT22;530;51.448;7.238;2023-11-22T04:11:44;5.50;99.90
1083;DHT22;530;51.448;7.238;2023-11-22T04:14:09;5.40;99.90
1083;DHT22;530;51.448;7.238;2023-11-22T04:16:35;5.50;99.90
1083;DHT22;530;51.448;7.238;2023-11-22T04:19:01;5.50;99.90
1083;DHT22;530;51.448;7.238;2023-11-22T04:21:27;5.40;99.90
1083;DHT22;530;51.448;7.238;2023-11-22T04:23:53;5.30;99.90
1083;DHT22;530;51.448;7.238;2023-11-22T04:26:18;5.30;99.90
1083;DHT22;530;51.448;7.238;2023-11-22T04:28:45;5.30;99.90
1083;DHT22;530;51.448;7.238;2023-11-22T04:31:11;5.20;99.90
1083;DHT22;530;51.448;7.238;2023-11-22T04:33:37;5.20;99.90
1083;DHT22;530;51.448;7.238;2023-11-22T04:36:04;5.20;99.90
1083;DHT22;530;51.448;7.238;2023-11-22T04:38:29;5.20;99.90
1083;DHT22;530;51.448;7.238;2023-11-22T04:40:55;5.10;99.90
1083;DHT22;530;51.448;7.238;2023-11-22T04:43:21;5.10;99.90
1083;DHT22;530;51.448;7.238;2023-11-22T04:45:46;5.10;99.90
1083;DHT22;530;51.448;7.238;2023-11-22T04:48:12;5.10;99.90
1083;DHT22;530;51.448;7.238;2023-11-22T04:50:41;5.10;99.90
1083;DHT22;530;51.448;7.238;2023-11-22T04:53:08;5.10;99.90
1083;DHT22;530;51.448;7.238;2023-11-22T04:55:34;5.20;99.90
1083;DHT22;530;51.448;7.238;2023-11-22T04:58:00;5.20;99.90
1083;DHT22;530;51.448;7.238;2023-11-22T05:00:25;5.20;99.90
1083;DHT22;530;51.448;7.238;2023-11-22T05:02:51;5.10;99.90
1083;DHT22;530;51.448;7.238;2023-11-22T05:05:17;5.10;99.90
1083;DHT22;530;51.448;7.238;2023-11-22T05:07:42;5.00;99.90
1083;DHT22;530;51.448;7.238;2023-11-22T05:10:10;4.90;99.90
1083;DHT22;530;51.448;7.238;2023-11-22T05:12:35;4.90;99.90
1083;DHT22;530;51.448;7.238;2023-11-22T05:15:02;4.70;99.90
1083;DHT22;530;51.448;7.238;2023-11-22T05:17:28;4.60;99.90
1083;DHT22;530;51.448;7.238;2023-11-22T05:19:53;4.50;99.90
1083;DHT22;530;51.448;7.238;2023-11-22T05:22:19;4.50;99.90
1083;DHT22;530;51.448;7.238;2023-11-22T05:24:45;4.40;99.90
1083;DHT22;530;51.448;7.238;2023-11-22T05:27:10;4.40;99.90
1083;DHT22;530;51.448;7.238;2023-11-22T05:29:36;4.50;99.90
1083;DHT22;530;51.448;7.238;2023-11-22T05:32:03;4.40;99.90
1083;DHT22;530;51.448;7.238;2023-11-22T05:34:29;4.40;99.90
1083;DHT22;530;51.448;7.238;2023-11-22T05:36:55;4.50;99.90
1083;DHT22;530;51.448;7.238;2023-11-22T05:39:21;4.50;99.90
1083;DHT22;530;51.448;7.238;2023-11-22T05:41:50;4.50;99.90
1083;DHT22;530;51.448;7.238;2023-11-22T05:44:16;4.60;99.90
1083;DHT22;530;51.448;7.238;2023-11-22T05:46:42;4.60;99.90
1083;DHT22;530;51.448;7.238;2023-11-22T05:49:07;4.60;99.90
1083;DHT22;530;51.448;7.238;2023-11-22T05:51:33;4.60;99.90
1083;DHT22;530;51.448;7.238;2023-11-22T05:53:59;4.60;99.90
1083;DHT22;530;51.448;7.238;2023-11-22T05:56:26;4.70;99.90
1083;DHT22;530;51.448;7.238;2023-11-22T05:58:51;4.70;99.90
1083;DHT22;530;51.448;7.238;2023-11-22T06:01:17;4.60;99.90
1083;DHT22;530;51.448;7.238;2023-11-22T06:03:43;4.60;99.90
1083;DHT22;530;51.448;7.238;2023-11-22T06:06:08;4.60;99.90
1083;DHT22;530;51.448;7.238;2023-11-22T06:08:34;4.50;99.90
1083;DHT22;530;51.448;7.238;2023-11-22T06:11:00;4.50;99.90
1083;DHT22;530;51.448;7.238;2023-11-22T06:13:26;4.50;99.90
1083;DHT22;530;51.448;7.238;2023-11-22T06:15:52;4.50;99.90
1083;DHT22;530;51.448;7.238;2023-11-22T06:18:18;4.50;99.90
1083;DHT22;530;51.448;7.238;2023-11-22T06:20:45;4.50;99.90
1083;DHT22;530;51.448;7.238;2023-11-22T06:23:11;4.50;99.90
1083;DHT22;530;51.448;7.238;2023-11-22T06:25:36;4.60;99.90
1083;DHT22;530;51.448;7.238;2023-11-22T06:28:02;4.50;99.90
1083;DHT22;530;51.448;7.238;2023-11-22T06:30:28;4.50;99.90
1083;DHT22;530;51.448;7.238;2023-11-22T06:32:56;4.50;99.90
1083;DHT22;530;51.448;7.238;2023-11-22T06:35:22;4.30;99.90
1083;DHT22;530;51.448;7.238;2023-11-22T06:37:48;4.30;99.90
1083;DHT22;530;51.448;7.238;2023-11-22T06:40:14;4.30;99.90
1083;DHT22;530;51.448;7.238;2023-11-22T06:42:40;4.40;99.90
1083;DHT22;530;51.448;7.238;2023-11-22T06:45:07;4.40;99.90
1083;DHT22;530;51.448;7.238;2023-11-22T06:47:44;4.30;99.90
1083;DHT22;530;51.448;7.238;2023-11-22T06:50:11;4.30;99.90
1083;DHT22;530;51.448;7.238;2023-11-22T06:52:41;4.20;99.90
1083;DHT22;530;51.448;7.238;2023-11-22T06:55:07;4.20;99.90
1083;DHT22;530;51.448;7.238;2023-11-22T06:57:34;4.20;99.90
1083;DHT22;530;51.448;7.238;2023-11-22T07:00:00;4.20;99.90
1083;DHT22;530;51.448;7.238;2023-11-22T07:02:33;4.10;99.90
1083;DHT22;530;51.448;7.238;2023-11-22T07:05:01;4.10;99.90
1083;DHT22;530;51.448;7.238;2023-11-22T07:07:27;4.10;99.90
1083;DHT22;530;51.448;7.238;2023-11-22T07:09:52;4.10;99.90
1083;DHT22;530;51.448;7.238;2023-11-22T07:12:18;4.10;99.90
1083;DHT22;530;51.448;7.238;2023-11-22T07:14:47;4.00;99.90
1083;DHT22;530;51.448;7.238;2023-11-22T07:17:15;4.00;99.90
1083;DHT22;530;51.448;7.238;2023-11-22T07:19:42;4.00;99.90
1083;DHT22;530;51.448;7.238;2023-11-22T07:22:21;4.00;99.90
1083;DHT22;530;51.448;7.238;2023-11-22T07:24:49;3.80;99.90
1083;DHT22;530;51.448;7.238;2023-11-22T07:27:19;3.70;99.90
1083;DHT22;530;51.448;7.238;2023-11-22T07:29:46;3.60;99.90
1083;DHT22;530;51.448;7.238;2023-11-22T07:32:12;3.60;99.90
1083;DHT22;530;51.448;7.238;2023-11-22T07:34:40;3.50;99.90
1083;DHT22;530;51.448;7.238;2023-11-22T07:37:06;3.50;99.90
1083;DHT22;530;51.448;7.238;2023-11-22T07:39:33;3.40;99.90
1083;DHT22;530;51.448;7.238;2023-11-22T07:42:01;3.40;99.90
1083;DHT22;530;51.448;7.238;2023-11-22T07:44:27;3.50;99.90
1083;DHT22;530;51.448;7.238;2023-11-22T07:46:53;3.60;99.90
1083;DHT22;530;51.448;7.238;2023-11-22T07:49:22;3.70;99.90
1083;DHT22;530;51.448;7.238;2023-11-22T07:51:48;3.80;99.90
1083;DHT22;530;51.448;7.238;2023-11-22T07:54:20;3.80;99.90
1083;DHT22;530;51.448;7.238;2023-11-22T07:56:48;3.90;99.90
1083;DHT22;530;51.448;7.238;2023-11-22T07:59:14;4.10;99.90
1083;DHT22;530;51.448;7.238;2023-11-22T08:01:43;4.40;99.90
1083;DHT22;530;51.448;7.238;2023-11-22T08:04:09;4.70;99.90
1083;DHT22;530;51.448;7.238;2023-11-22T08:06:35;4.90;99.90
1083;DHT22;530;51.448;7.238;2023-11-22T08:09:01;5.10;99.90
1083;DHT22;530;51.448;7.238;2023-11-22T08:11:28;5.20;99.90
1083;DHT22;530;51.448;7.238;2023-11-22T08:13:54;5.40;99.90
1083;DHT22;530;51.448;7.238;2023-11-22T08:16:27;5.50;99.90
1083;DHT22;530;51.448;7.238;2023-11-22T08:18:54;5.80;99.90
1083;DHT22;530;51.448;7.238;2023-11-22T08:21:19;6.10;99.90
1083;DHT22;530;51.448;7.238;2023-11-22T08:23:46;6.30;99.90
1083;DHT22;530;51.448;7.238;2023-11-22T08:26:12;6.50;99.90
1083;DHT22;530;51.448;7.238;2023-11-22T08:28:40;6.70;99.90
1083;DHT22;530;51.448;7.238;2023-11-22T08:31:06;6.80;99.90
1083;DHT22;530;51.448;7.238;2023-11-22T08:33:38;7.00;99.90
1083;DHT22;530;51.448;7.238;2023-11-22T08:36:08;7.10;99.90
1083;DHT22;530;51.448;7.238;2023-11-22T08:38:37;7.20;99.90
1083;DHT22;530;51.448;7.238;2023-11-22T08:41:10;7.40;99.90
1083;DHT22;530;51.448;7.238;2023-11-22T08:43:39;7.50;99.90
1083;DHT22;530;51.448;7.238;2023-11-22T08:46:05;7.60;99.90
1083;DHT22;530;51.448;7.238;2023-11-22T08:48:32;7.70;99.90
1083;DHT22;530;51.448;7.238;2023-11-22T08:51:00;7.80;99.90
1083;DHT22;530;51.448;7.238;2023-11-22T08:53:26;7.80;99.90
1083;DHT22;530;51.448;7.238;2023-11-22T08:55:52;8.00;99.90
1083;DHT22;530;51.448;7.238;2023-11-22T08:58:20;8.30;99.90
1083;DHT22;530;51.448;7.238;2023-11-22T09:00:46;8.50;99.90
1083;DHT22;530;51.448;7.238;2023-11-22T09:03:12;8.70;99.90
1083;DHT22;530;51.448;7.238;2023-11-22T09:05:42;8.70;99.90
1083;DHT22;530;51.448;7.238;2023-11-22T09:08:09;8.80;99.90
1083;DHT22;530;51.448;7.238;2023-11-22T09:10:43;9.00;99.90
1083;DHT22;530;51.448;7.238;2023-11-22T09:13:10;9.20;99.90
1083;DHT22;530;51.448;7.238;2023-11-22T09:15:36;9.20;99.90
1083;DHT22;530;51.448;7.238;2023-11-22T09:18:04;9.30;99.90
1083;DHT22;530;51.448;7.238;2023-11-22T09:20:30;9.40;99.90
1083;DHT22;530;51.448;7.238;2023-11-22T09:22:56;9.50;99.90
1083;DHT22;530;51.448;7.238;2023-11-22T09:27:51;9.60;99.90
1083;DHT22;530;51.448;7.238;2023-11-22T09:30:31;9.60;99.90
1083;DHT22;530;51.448;7.238;2023-11-22T09:33:23;9.60;99.90
1083;DHT22;530;51.448;7.238;2023-11-22T09:35:49;9.40;99.90
1083;DHT22;530;51.448;7.238;2023-11-22T09:38:16;9.20;99.90
1083;DHT22;530;51.448;7.238;2023-11-22T09:40:46;9.10;99.90
1083;DHT22;530;51.448;7.238;2023-11-22T09:43:14;8.90;99.90
1083;DHT22;530;51.448;7.238;2023-11-22T09:45:49;8.80;99.90
1083;DHT22;530;51.448;7.238;2023-11-22T09:48:17;8.70;99.90
1083;DHT22;530;51.448;7.238;2023-11-22T09:51:04;8.60;99.90
1083;DHT22;530;51.448;7.238;2023-11-22T09:53:36;8.30;99.90
1083;DHT22;530;51.448;7.238;2023-11-22T09:56:03;8.10;99.90
1083;DHT22;530;51.448;7.238;2023-11-22T09:58:34;8.00;99.90
1083;DHT22;530;51.448;7.238;2023-11-22T10:01:00;7.90;99.90
1083;DHT22;530;51.448;7.238;2023-11-22T10:03:27;7.70;99.90
1083;DHT22;530;51.448;7.238;2023-11-22T10:05:59;7.70;99.90
1083;DHT22;530;51.448;7.238;2023-11-22T10:08:28;7.60;99.90
1083;DHT22;530;51.448;7.238;2023-11-22T10:10:55;7.50;99.90
1083;DHT22;530;51.448;7.238;2023-11-22T10:13:21;7.40;99.90
1083;DHT22;530;51.448;7.238;2023-11-22T10:15:48;7.40;99.90
1083;DHT22;530;51.448;7.238;2023-11-22T10:18:14;7.30;99.90
1083;DHT22;530;51.448;7.238;2023-11-22T10:20:41;7.40;99.90
1083;DHT22;530;51.448;7.238;2023-11-22T10:23:12;7.30;99.90
1083;DHT22;530;51.448;7.238;2023-11-22T10:25:50;7.10;99.90
1083;DHT22;530;51.448;7.238;2023-11-22T10:28:20;7.00;99.90
1083;DHT22;530;51.448;7.238;2023-11-22T10:30:47;6.90;99.90
1083;DHT22;530;51.448;7.238;2023-11-22T10:33:14;6.90;99.90
1083;DHT22;530;51.448;7.238;2023-11-22T10:38:09;6.90;99.90
1083;DHT22;530;51.448;7.238;2023-11-22T10:40:38;6.90;99.90
1083;DHT22;530;51.448;7.238;2023-11-22T10:43:05;7.00;99.90
1083;DHT22;530;51.448;7.238;2023-11-22T10:45:33;7.10;99.90
1083;DHT22;530;51.448;7.238;2023-11-22T10:48:03;7.10;99.90
1083;DHT22;530;51.448;7.238;2023-11-22T10:50:28;7.10;99.90
1083;DHT22;530;51.448;7.238;2023-11-22T10:52:57;7.20;99.90
1083;DHT22;530;51.448;7.238;2023-11-22T10:55:32;7.20;99.90
1083;DHT22;530;51.448;7.238;2023-11-22T10:58:02;7.20;99.90
1083;DHT22;530;51.448;7.238;2023-11-22T11:00:31;7.20;99.90
1083;DHT22;530;51.448;7.238;2023-11-22T11:03:08;7.20;99.90
1083;DHT22;530;51.448;7.238;2023-11-22T11:05:39;7.10;99.90
1083;DHT22;530;51.448;7.238;2023-11-22T11:08:14;7.10;99.90
1083;DHT22;530;51.448;7.238;2023-11-22T11:10:44;7.00;99.90
1083;DHT22;530;51.448;7.238;2023-11-22T11:13:13;7.00;99.90
1083;DHT22;530;51.448;7.238;2023-11-22T11:15:40;7.00;99.90
1083;DHT22;530;51.448;7.238;2023-11-22T11:18:13;7.10;99.90
1083;DHT22;530;51.448;7.238;2023-11-22T11:20:55;7.10;99.90
1083;DHT22;530;51.448;7.238;2023-11-22T11:23:23;7.20;99.90
1083;DHT22;530;51.448;7.238;2023-11-22T11:25:57;7.20;99.90
1083;DHT22;530;51.448;7.238;2023-11-22T11:28:23;7.30;99.90
1083;DHT22;530;51.448;7.238;2023-11-22T11:30:56;7.30;99.90
1083;DHT22;530;51.448;7.238;2023-11-22T11:33:33;7.40;99.90
1083;DHT22;530;51.448;7.238;2023-11-22T11:36:02;7.40;99.90
1083;DHT22;530;51.448;7.238;2023-11-22T11:38:35;7.20;99.90
1083;DHT22;530;51.448;7.238;2023-11-22T11:41:11;7.30;99.90
1083;DHT22;530;51.448;7.238;2023-11-22T11:43:44;7.30;99.90
1083;DHT22;530;51.448;7.238;2023-11-22T11:46:12;7.40;99.90
1083;DHT22;530;51.448;7.238;2023-11-22T11:48:37;7.40;99.90
1083;DHT22;530;51.448;7.238;2023-11-22T11:51:03;7.50;99.90
1083;DHT22;530;51.448;7.238;2023-11-22T11:53:29;7.50;99.90
1083;DHT22;530;51.448;7.238;2023-11-22T11:55:57;7.60;99.90
1083;DHT22;530;51.448;7.238;2023-11-22T11:58:23;7.70;99.90
1083;DHT22;530;51.448;7.238;2023-11-22T12:00:54;7.70;99.90
1083;DHT22;530;51.448;7.238;2023-11-22T12:03:20;7.70;99.90
1083;DHT22;530;51.448;7.238;2023-11-22T12:05:49;7.70;99.90
1083;DHT22;530;51.448;7.238;2023-11-22T12:08:15;7.60;99.90
1083;DHT22;530;51.448;7.238;2023-11-22T12:10:43;7.50;99.90
1083;DHT22;530;51.448;7.238;2023-11-22T12:13:09;7.30;99.90
1083;DHT22;530;51.448;7.238;2023-11-22T12:15:35;7.20;99.90
1083;DHT22;530;51.448;7.238;2023-11-22T12:18:01;7.20;99.90
1083;DHT22;530;51.448;7.238;2023-11-22T12:20:27;7.30;99.90
1083;DHT22;530;51.448;7.238;2023-11-22T12:23:00;7.20;99.90
1083;DHT22;530;51.448;7.238;2023-11-22T12:25:29;7.20;99.90
1083;DHT22;530;51.448;7.238;2023-11-22T12:27:56;7.40;99.90
1083;DHT22;530;51.448;7.238;2023-11-22T12:30:29;7.40;99.90
1083;DHT22;530;51.448;7.238;2023-11-22T12:32:59;7.50;99.90
1083;DHT22;530;51.448;7.238;2023-11-22T12:35:25;7.50;99.90
1083;DHT22;530;51.448;7.238;2023-11-22T12:37:52;7.40;99.90
1083;DHT22;530;51.448;7.238;2023-11-22T12:40:20;7.40;99.90
1083;DHT22;530;51.448;7.238;2023-11-22T12:42:50;7.40;99.90
1083;DHT22;530;51.448;7.238;2023-11-22T12:45:20;7.40;99.90
1083;DHT22;530;51.448;7.238;2023-11-22T12:47:46;7.30;99.90
1083;DHT22;530;51.448;7.238;2023-11-22T12:50:32;7.20;99.90
1083;DHT22;530;51.448;7.238;2023-11-22T12:52:58;7.20;99.90
1083;DHT22;530;51.448;7.238;2023-11-22T12:55:24;7.20;99.90
1083;DHT22;530;51.448;7.238;2023-11-22T12:57:57;7.30;99.90
1083;DHT22;530;51.448;7.238;2023-11-22T13:00:25;7.20;99.90
1083;DHT22;530;51.448;7.238;2023-11-22T13:02:51;7.20;99.90
1083;DHT22;530;51.448;7.238;2023-11-22T13:05:16;7.20;99.90
1083;DHT22;530;51.448;7.238;2023-11-22T13:07:42;7.20;99.90
1083;DHT22;530;51.448;7.238;2023-11-22T13:10:09;7.20;99.90
1083;DHT22;530;51.448;7.238;2023-11-22T13:12:35;7.10;99.90
1083;DHT22;530;51.448;7.238;2023-11-22T13:15:01;7.10;99.90
1083;DHT22;530;51.448;7.238;2023-11-22T13:17:26;7.00;99.90
1083;DHT22;530;51.448;7.238;2023-11-22T13:19:52;7.00;99.90
1083;DHT22;530;51.448;7.238;2023-11-22T13:22:19;7.00;99.90
1083;DHT22;530;51.448;7.238;2023-11-22T13:24:45;7.00;99.90
1083;DHT22;530;51.448;7.238;2023-11-22T13:27:10;7.10;99.90
1083;DHT22;530;51.448;7.238;2023-11-22T13:29:36;7.10;99.90
1083;DHT22;530;51.448;7.238;2023-11-22T13:32:02;7.20;99.90
1083;DHT22;530;51.448;7.238;2023-11-22T13:34:28;7.10;99.90
1083;DHT22;530;51.448;7.238;2023-11-22T13:36:54;7.20;99.90
1083;DHT22;530;51.448;7.238;2023-11-22T13:39:21;7.20;99.90
1083;DHT22;530;51.448;7.238;2023-11-22T13:41:47;7.20;99.90
1083;DHT22;530;51.448;7.238;2023-11-22T13:44:15;7.20;99.90
1083;DHT22;530;51.448;7.238;2023-11-22T13:46:40;7.10;99.90
1083;DHT22;530;51.448;7.238;2023-11-22T13:49:06;7.00;99.90
1083;DHT22;530;51.448;7.238;2023-11-22T13:51:32;7.10;99.90
1083;DHT22;530;51.448;7.238;2023-11-22T13:53:57;7.20;99.90
1083;DHT22;530;51.448;7.238;2023-11-22T13:56:23;7.20;99.90
1083;DHT22;530;51.448;7.238;2023-11-22T13:58:49;7.20;99.90
1083;DHT22;530;51.448;7.238;2023-11-22T14:01:15;7.30;99.90
1083;DHT22;530;51.448;7.238;2023-11-22T14:03:47;7.30;99.90
1083;DHT22;530;51.448;7.238;2023-11-22T14:06:13;7.30;99.90
1083;DHT22;530;51.448;7.238;2023-11-22T14:08:39;7.30;99.90
1083;DHT22;530;51.448;7.238;2023-11-22T14:11:05;7.30;99.90
1083;DHT22;530;51.448;7.238;2023-11-22T14:13:31;7.30;99.90
1083;DHT22;530;51.448;7.238;2023-11-22T14:15:57;7.30;99.90
1083;DHT22;530;51.448;7.238;2023-11-22T14:18:23;7.30;99.90
1083;DHT22;530;51.448;7.238;2023-11-22T14:20:50;7.30;99.90
1083;DHT22;530;51.448;7.238;2023-11-22T14:23:16;7.20;99.90
1083;DHT22;530;51.448;7.238;2023-11-22T14:25:42;7.20;99.90
1083;DHT22;530;51.448;7.238;2023-11-22T14:28:08;7.20;99.90
1083;DHT22;530;51.448;7.238;2023-11-22T14:30:35;7.20;99.90
1083;DHT22;530;51.448;7.238;2023-11-22T14:33:02;7.20;99.90
1083;DHT22;530;51.448;7.238;2023-11-22T14:35:33;7.20;99.90
1083;DHT22;530;51.448;7.238;2023-11-22T14:38:00;7.20;99.90
1083;DHT22;530;51.448;7.238;2023-11-22T14:40:26;7.10;99.90
1083;DHT22;530;51.448;7.238;2023-11-22T14:42:51;7.10;99.90
1083;DHT22;530;51.448;7.238;2023-11-22T14:45:18;7.00;99.90
1083;DHT22;530;51.448;7.238;2023-11-22T14:47:46;7.00;99.90
1083;DHT22;530;51.448;7.238;2023-11-22T14:50:12;6.90;99.90
1083;DHT22;530;51.448;7.238;2023-11-22T14:52:41;6.90;99.90
1083;DHT22;530;51.448;7.238;2023-11-22T14:55:07;6.90;99.90
1083;DHT22;530;51.448;7.238;2023-11-22T14:57:35;6.90;99.90
1083;DHT22;530;51.448;7.238;2023-11-22T15:00:01;6.80;99.90
1083;DHT22;530;51.448;7.238;2023-11-22T15:02:28;6.90;99.90
1083;DHT22;530;51.448;7.238;2023-11-22T15:04:54;6.90;99.90
1083;DHT22;530;51.448;7.238;2023-11-22T15:07:19;6.90;99.90
1083;DHT22;530;51.448;7.238;2023-11-22T15:09:45;6.80;99.90
1083;DHT22;530;51.448;7.238;2023-11-22T15:12:11;6.80;99.90
1083;DHT22;530;51.448;7.238;2023-11-22T15:14:37;6.80;99.90
1083;DHT22;530;51.448;7.238;2023-11-22T15:17:02;6.70;99.90
1083;DHT22;530;51.448;7.238;2023-11-22T15:19:30;6.70;99.90
1083;DHT22;530;51.448;7.238;2023-11-22T15:21:56;6.70;99.90
1083;DHT22;530;51.448;7.238;2023-11-22T15:24:22;6.70;99.90
1083;DHT22;530;51.448;7.238;2023-11-22T15:26:48;6.70;99.90
1083;DHT22;530;51.448;7.238;2023-11-22T15:29:14;6.70;99.90
1083;DHT22;530;51.448;7.238;2023-11-22T15:31:42;6.70;99.90
1083;DHT22;530;51.448;7.238;2023-11-22T15:34:09;6.60;99.90
1083;DHT22;530;51.448;7.238;2023-11-22T15:36:34;6.60;99.90
1083;DHT22;530;51.448;7.238;2023-11-22T15:39:01;6.60;99.90
1083;DHT22;530;51.448;7.238;2023-11-22T15:41:27;6.60;99.90
1083;DHT22;530;51.448;7.238;2023-11-22T15:43:53;6.60;99.90
1083;DHT22;530;51.448;7.238;2023-11-22T15:46:19;6.60;99.90
1083;DHT22;530;51.448;7.238;2023-11-22T15:48:50;6.60;99.90
1083;DHT22;530;51.448;7.238;2023-11-22T15:51:16;6.60;99.90
1083;DHT22;530;51.448;7.238;2023-11-22T15:53:42;6.70;99.90
1083;DHT22;530;51.448;7.238;2023-11-22T15:56:08;6.70;99.90
1083;DHT22;530;51.448;7.238;2023-11-22T15:58:44;6.70;99.90
1083;DHT22;530;51.448;7.238;2023-11-22T16:01:10;6.70;99.90
1083;DHT22;530;51.448;7.238;2023-11-22T16:03:39;6.70;99.90
1083;DHT22;530;51.448;7.238;2023-11-22T16:06:06;6.70;99.90
1083;DHT22;530;51.448;7.238;2023-11-22T16:08:33;6.70;99.90
1083;DHT22;530;51.448;7.238;2023-11-22T16:10:59;6.70;99.90
1083;DHT22;530;51.448;7.238;2023-11-22T16:13:24;6.70;99.90
1083;DHT22;530;51.448;7.238;2023-11-22T16:15:53;6.70;99.90
1083;DHT22;530;51.448;7.238;2023-11-22T16:18:20;6.80;99.90
1083;DHT22;530;51.448;7.238;2023-11-22T16:20:57;6.80;99.90
1083;DHT22;530;51.448;7.238;2023-11-22T16:23:26;6.80;99.90
1083;DHT22;530;51.448;7.238;2023-11-22T16:25:52;6.80;99.90
1083;DHT22;530;51.448;7.238;2023-11-22T16:28:18;6.80;99.90
1083;DHT22;530;51.448;7.238;2023-11-22T16:30:43;6.80;99.90
1083;DHT22;530;51.448;7.238;2023-11-22T16:33:10;6.80;99.90
1083;DHT22;530;51.448;7.238;2023-11-22T16:35:38;6.80;99.90
1083;DHT22;530;51.448;7.238;2023-11-22T16:38:03;6.80;99.90